sensor_id;sensor_type;location;lat;lon;timestamp;pressure;altitude;pressure_sealevel;temperature;humidity
77027;BME280;65956;52.986;17.490;2023-06-14T01:03:29;100591.93;;;13.85;73.56
77027;BME280;65956;52.986;17.490;2023-06-14T01:06:19;100590.89;;;13.85;73.62
77027;BME280;65956;52.986;17.490;2023-06-14T01:09:18;100585.60;;;13.83;73.65
77027;BME280;65956;52.986;17.490;2023-06-14T01:12:04;100585.08;;;13.80;73.61
77027;BME280;65956;52.986;17.490;2023-06-14T01:14:33;100594.21;;;13.78;73.58
77027;BME280;65956;52.986;17.490;2023-06-14T01:17:01;100591.02;;;13.81;73.67
77027;BME280;65956;52.986;17.490;2023-06-14T01:19:28;100589.35;;;13.81;73.68
77027;BME280;65956;52.986;17.490;2023-06-14T01:21:55;100588.48;;;13.82;73.58
77027;BME280;65956;52.986;17.490;2023-06-14T01:24:21;100585.68;;;13.82;73.81
77027;BME280;65956;52.986;17.490;2023-06-14T01:26:53;100585.45;;;13.83;73.79
77027;BME280;65956;52.986;17.490;2023-06-14T01:29:25;100581.84;;;13.84;73.71
77027;BME280;65956;52.986;17.490;2023-06-14T01:31:54;100580.73;;;13.84;73.60
77027;BME280;65956;52.986;17.490;2023-06-14T01:34:21;100584.48;;;13.84;73.71
77027;BME280;65956;52.986;17.490;2023-06-14T01:36:50;100579.52;;;13.82;73.96
77027;BME280;65956;52.986;17.490;2023-06-14T01:39:17;100576.28;;;13.79;74.01
77027;BME280;65956;52.986;17.490;2023-06-14T01:41:45;100572.71;;;13.74;74.46
77027;BME280;65956;52.986;17.490;2023-06-14T01:44:14;100571.55;;;13.68;74.76
77027;BME280;65956;52.986;17.490;2023-06-14T01:46:41;100576.08;;;13.64;74.89
77027;BME280;65956;52.986;17.490;2023-06-14T01:49:08;100570.77;;;13.61;74.90
77027;BME280;65956;52.986;17.490;2023-06-14T01:51:34;100560.73;;;13.58;74.95
77027;BME280;65956;52.986;17.490;2023-06-14T01:54:01;100552.80;;;13.55;75.21
77027;BME280;65956;52.986;17.490;2023-06-14T01:56:27;100555.41;;;13.51;75.19
77027;BME280;65956;52.986;17.490;2023-06-14T01:58:53;100553.70;;;13.48;75.31
77027;BME280;65956;52.986;17.490;2023-06-14T02:01:20;100555.67;;;13.46;75.46
77027;BME280;65956;52.986;17.490;2023-06-14T02:03:47;100553.58;;;13.44;75.49
77027;BME280;65956;52.986;17.490;2023-06-14T02:06:15;100555.25;;;13.43;75.57
77027;BME280;65956;52.986;17.490;2023-06-14T02:08:41;100543.37;;;13.39;75.61
77027;BME280;65956;52.986;17.490;2023-06-14T02:11:08;100543.22;;;13.39;75.97
77027;BME280;65956;52.986;17.490;2023-06-14T02:13:35;100542.05;;;13.35;76.04
77027;BME280;65956;52.986;17.490;2023-06-14T02:16:01;100538.83;;;13.31;76.28
77027;BME280;65956;52.986;17.490;2023-06-14T02:18:28;100545.09;;;13.27;76.48
77027;BME280;65956;52.986;17.490;2023-06-14T02:20:55;100541.93;;;13.23;76.52
77027;BME280;65956;52.986;17.490;2023-06-14T02:23:21;100542.70;;;13.20;76.52
77027;BME280;65956;52.986;17.490;2023-06-14T02:25:47;100541.81;;;13.18;76.63
77027;BME280;65956;52.986;17.490;2023-06-14T02:28:13;100542.29;;;13.17;76.77
77027;BME280;65956;52.986;17.490;2023-06-14T02:30:39;100550.02;;;13.15;76.82
77027;BME280;65956;52.986;17.490;2023-06-14T02:33:06;100550.08;;;13.14;76.99
77027;BME280;65956;52.986;17.490;2023-06-14T02:35:32;100548.80;;;13.13;77.32
77027;BME280;65956;52.986;17.490;2023-06-14T02:37:58;100548.27;;;13.10;77.67
77027;BME280;65956;52.986;17.490;2023-06-14T02:40:24;100546.95;;;13.07;77.78
77027;BME280;65956;52.986;17.490;2023-06-14T02:42:50;100550.38;;;13.07;77.74
77027;BME280;65956;52.986;17.490;2023-06-14T02:45:17;100544.91;;;13.05;77.93
77027;BME280;65956;52.986;17.490;2023-06-14T02:47:44;100554.40;;;13.03;78.34
77027;BME280;65956;52.986;17.490;2023-06-14T02:50:12;100555.19;;;13.00;78.18
77027;BME280;65956;52.986;17.490;2023-06-14T02:52:38;100552.84;;;12.99;78.62
77027;BME280;65956;52.986;17.490;2023-06-14T02:55:07;100546.34;;;12.96;78.98
77027;BME280;65956;52.986;17.490;2023-06-14T02:57:36;100544.86;;;12.92;79.11
77027;BME280;65956;52.986;17.490;2023-06-14T03:00:03;100547.06;;;12.89;79.45
77027;BME280;65956;52.986;17.490;2023-06-14T03:02:30;100542.16;;;12.86;79.42
77027;BME280;65956;52.986;17.490;2023-06-14T03:04:56;100548.27;;;12.84;79.81
77027;BME280;65956;52.986;17.490;2023-06-14T03:07:28;100547.69;;;12.81;80.13
77027;BME280;65956;52.986;17.490;2023-06-14T03:09:56;100547.57;;;12.78;80.50
77027;BME280;65956;52.986;17.490;2023-06-14T03:12:22;100548.13;;;12.71;80.67
77027;BME280;65956;52.986;17.490;2023-06-14T03:14:49;100550.22;;;12.66;80.59
77027;BME280;65956;52.986;17.490;2023-06-14T03:17:19;100541.84;;;12.60;80.52
77027;BME280;65956;52.986;17.490;2023-06-14T03:19:45;100540.37;;;12.58;80.97
77027;BME280;65956;52.986;17.490;2023-06-14T03:22:12;100537.46;;;12.55;81.13
77027;BME280;65956;52.986;17.490;2023-06-14T03:24:39;100537.89;;;12.51;81.65
77027;BME280;65956;52.986;17.490;2023-06-14T03:27:10;100539.14;;;12.48;81.85
77027;BME280;65956;52.986;17.490;2023-06-14T03:29:37;100532.14;;;12.46;81.90
77027;BME280;65956;52.986;17.490;2023-06-14T03:32:03;100535.17;;;12.44;81.89
77027;BME280;65956;52.986;17.490;2023-06-14T03:34:38;100536.50;;;12.42;81.82
77027;BME280;65956;52.986;17.490;2023-06-14T03:37:05;100533.67;;;12.40;82.04
77027;BME280;65956;52.986;17.490;2023-06-14T03:39:31;100535.73;;;12.38;82.13
77027;BME280;65956;52.986;17.490;2023-06-14T03:41:57;100532.76;;;12.37;82.43
77027;BME280;65956;52.986;17.490;2023-06-14T03:44:26;100530.34;;;12.37;82.44
77027;BME280;65956;52.986;17.490;2023-06-14T03:46:52;100531.89;;;12.38;82.01
77027;BME280;65956;52.986;17.490;2023-06-14T03:49:19;100535.20;;;12.40;81.90
77027;BME280;65956;52.986;17.490;2023-06-14T03:51:45;100536.42;;;12.42;82.14
77027;BME280;65956;52.986;17.490;2023-06-14T03:54:17;100538.61;;;12.45;81.94
77027;BME280;65956;52.986;17.490;2023-06-14T03:56:44;100540.48;;;12.48;82.05
77027;BME280;65956;52.986;17.490;2023-06-14T03:59:11;100541.33;;;12.51;81.87
77027;BME280;65956;52.986;17.490;2023-06-14T04:01:37;100538.72;;;12.53;81.62
77027;BME280;65956;52.986;17.490;2023-06-14T04:04:03;100548.98;;;12.57;81.35
77027;BME280;65956;52.986;17.490;2023-06-14T04:06:29;100550.30;;;12.59;81.04
77027;BME280;65956;52.986;17.490;2023-06-14T04:08:59;100561.53;;;12.63;80.64
77027;BME280;65956;52.986;17.490;2023-06-14T04:11:30;100565.81;;;12.67;80.40
77027;BME280;65956;52.986;17.490;2023-06-14T04:13:58;100563.55;;;12.71;80.11
77027;BME280;65956;52.986;17.490;2023-06-14T04:16:25;100561.36;;;12.74;80.06
77027;BME280;65956;52.986;17.490;2023-06-14T04:18:51;100567.37;;;12.77;79.93
77027;BME280;65956;52.986;17.490;2023-06-14T04:21:18;100565.32;;;12.79;79.81
77027;BME280;65956;52.986;17.490;2023-06-14T04:23:45;100567.44;;;12.82;79.57
77027;BME280;65956;52.986;17.490;2023-06-14T04:26:13;100567.08;;;12.87;79.42
77027;BME280;65956;52.986;17.490;2023-06-14T04:28:40;100569.38;;;12.92;79.26
77027;BME280;65956;52.986;17.490;2023-06-14T04:31:07;100570.33;;;12.97;79.19
77027;BME280;65956;52.986;17.490;2023-06-14T04:33:35;100570.29;;;13.01;79.01
77027;BME280;65956;52.986;17.490;2023-06-14T04:36:12;100568.41;;;13.04;78.78
77027;BME280;65956;52.986;17.490;2023-06-14T04:38:39;100569.09;;;13.09;78.53
77027;BME280;65956;52.986;17.490;2023-06-14T04:41:05;100570.55;;;13.14;78.66
77027;BME280;65956;52.986;17.490;2023-06-14T04:43:32;100570.87;;;13.22;78.54
77027;BME280;65956;52.986;17.490;2023-06-14T04:46:05;100570.14;;;13.29;78.38
77027;BME280;65956;52.986;17.490;2023-06-14T04:48:37;100572.52;;;13.35;78.49
77027;BME280;65956;52.986;17.490;2023-06-14T04:51:05;100577.60;;;13.38;78.19
77027;BME280;65956;52.986;17.490;2023-06-14T04:53:32;100574.54;;;13.45;77.97
77027;BME280;65956;52.986;17.490;2023-06-14T04:55:58;100567.95;;;13.50;77.59
77027;BME280;65956;52.986;17.490;2023-06-14T04:58:24;100560.07;;;13.54;77.45
77027;BME280;65956;52.986;17.490;2023-06-14T05:00:50;100565.00;;;13.60;77.06
77027;BME280;65956;52.986;17.490;2023-06-14T05:03:16;100567.70;;;13.67;77.02
77027;BME280;65956;52.986;17.490;2023-06-14T05:05:44;100571.75;;;13.74;76.94
77027;BME280;65956;52.986;17.490;2023-06-14T05:08:12;100575.19;;;13.82;77.37
77027;BME280;65956;52.986;17.490;2023-06-14T05:10:38;100577.10;;;13.90;78.36
77027;BME280;65956;52.986;17.490;2023-06-14T05:13:04;100579.70;;;13.96;78.67
77027;BME280;65956;52.986;17.490;2023-06-14T05:15:30;100577.34;;;14.02;78.73
77027;BME280;65956;52.986;17.490;2023-06-14T05:17:57;100574.36;;;14.02;78.45
77027;BME280;65956;52.986;17.490;2023-06-14T05:20:24;100567.36;;;14.06;78.42
77027;BME280;65956;52.986;17.490;2023-06-14T05:22:53;100568.13;;;14.11;78.23
77027;BME280;65956;52.986;17.490;2023-06-14T05:25:20;100558.67;;;14.13;77.37
77027;BME280;65956;52.986;17.490;2023-06-14T05:27:47;100557.86;;;14.11;76.71
77027;BME280;65956;52.986;17.490;2023-06-14T05:30:14;100559.39;;;14.10;76.65
77027;BME280;65956;52.986;17.490;2023-06-14T05:32:41;100559.87;;;14.10;76.69
77027;BME280;65956;52.986;17.490;2023-06-14T05:35:08;100557.86;;;14.11;76.93
77027;BME280;65956;52.986;17.490;2023-06-14T05:37:34;100561.81;;;14.14;77.11
77027;BME280;65956;52.986;17.490;2023-06-14T05:40:00;100566.23;;;14.18;77.11
77027;BME280;65956;52.986;17.490;2023-06-14T05:42:26;100569.39;;;14.21;76.97
77027;BME280;65956;52.986;17.490;2023-06-14T05:44:52;100573.59;;;14.28;76.97
77027;BME280;65956;52.986;17.490;2023-06-14T05:47:17;100569.36;;;14.40;76.67
77027;BME280;65956;52.986;17.490;2023-06-14T05:49:43;100571.77;;;14.56;76.56
77027;BME280;65956;52.986;17.490;2023-06-14T05:52:10;100567.60;;;14.69;76.42
77027;BME280;65956;52.986;17.490;2023-06-14T05:54:37;100569.02;;;14.81;75.89
77027;BME280;65956;52.986;17.490;2023-06-14T05:57:03;100569.37;;;14.93;75.35
77027;BME280;65956;52.986;17.490;2023-06-14T05:59:31;100578.34;;;15.11;75.41
77027;BME280;65956;52.986;17.490;2023-06-14T06:01:57;100583.84;;;15.33;75.07
77027;BME280;65956;52.986;17.490;2023-06-14T06:04:23;100580.61;;;15.54;74.45
77027;BME280;65956;52.986;17.490;2023-06-14T06:06:49;100582.55;;;15.72;73.68
77027;BME280;65956;52.986;17.490;2023-06-14T06:09:15;100585.93;;;15.84;73.24
77027;BME280;65956;52.986;17.490;2023-06-14T06:11:41;100589.95;;;15.96;72.88
77027;BME280;65956;52.986;17.490;2023-06-14T06:14:07;100588.17;;;16.02;72.15
77027;BME280;65956;52.986;17.490;2023-06-14T06:16:33;100588.25;;;16.03;71.63
77027;BME280;65956;52.986;17.490;2023-06-14T06:18:59;100592.34;;;16.09;71.48
77027;BME280;65956;52.986;17.490;2023-06-14T06:21:25;100596.66;;;16.22;71.73
77027;BME280;65956;52.986;17.490;2023-06-14T06:23:51;100593.42;;;16.40;71.24
77027;BME280;65956;52.986;17.490;2023-06-14T06:26:17;100589.96;;;16.44;70.25
77027;BME280;65956;52.986;17.490;2023-06-14T06:28:43;100587.70;;;16.48;70.26
77027;BME280;65956;52.986;17.490;2023-06-14T06:31:09;100593.96;;;16.57;70.34
77027;BME280;65956;52.986;17.490;2023-06-14T06:33:36;100594.36;;;16.63;69.90
77027;BME280;65956;52.986;17.490;2023-06-14T06:36:02;100593.77;;;16.69;69.43
77027;BME280;65956;52.986;17.490;2023-06-14T06:38:29;100589.25;;;16.78;68.94
77027;BME280;65956;52.986;17.490;2023-06-14T06:40:55;100584.98;;;16.77;68.70
77027;BME280;65956;52.986;17.490;2023-06-14T06:43:22;100578.13;;;16.83;69.14
77027;BME280;65956;52.986;17.490;2023-06-14T06:45:49;100576.94;;;16.97;68.78
77027;BME280;65956;52.986;17.490;2023-06-14T06:48:15;100581.59;;;16.99;67.96
77027;BME280;65956;52.986;17.490;2023-06-14T06:50:41;100582.88;;;17.00;67.83
77027;BME280;65956;52.986;17.490;2023-06-14T06:53:07;100589.44;;;17.20;67.25
77027;BME280;65956;52.986;17.490;2023-06-14T06:55:33;100591.70;;;17.48;67.37
77027;BME280;65956;52.986;17.490;2023-06-14T06:57:59;100590.00;;;17.85;67.36
77027;BME280;65956;52.986;17.490;2023-06-14T07:00:26;100589.65;;;18.07;65.30
77027;BME280;65956;52.986;17.490;2023-06-14T07:02:55;100591.08;;;18.11;64.35
77027;BME280;65956;52.986;17.490;2023-06-14T07:05:23;100586.19;;;18.07;64.23
77027;BME280;65956;52.986;17.490;2023-06-14T07:07:49;100591.88;;;18.19;65.03
77027;BME280;65956;52.986;17.490;2023-06-14T07:10:15;100590.98;;;18.37;65.15
77027;BME280;65956;52.986;17.490;2023-06-14T07:12:41;100591.34;;;18.58;64.17
77027;BME280;65956;52.986;17.490;2023-06-14T07:15:07;100591.73;;;18.74;63.21
77027;BME280;65956;52.986;17.490;2023-06-14T07:17:34;100596.17;;;18.81;62.84
77027;BME280;65956;52.986;17.490;2023-06-14T07:20:02;100600.64;;;18.92;61.99
77027;BME280;65956;52.986;17.490;2023-06-14T07:22:39;100605.95;;;18.87;60.64
77027;BME280;65956;52.986;17.490;2023-06-14T07:25:10;100605.47;;;18.86;60.83
77027;BME280;65956;52.986;17.490;2023-06-14T07:27:41;100609.48;;;18.87;60.78
77027;BME280;65956;52.986;17.490;2023-06-14T07:30:08;100610.67;;;18.89;60.05
77027;BME280;65956;52.986;17.490;2023-06-14T07:32:36;100611.51;;;18.86;60.41
77027;BME280;65956;52.986;17.490;2023-06-14T07:35:02;100613.40;;;18.83;59.78
77027;BME280;65956;52.986;17.490;2023-06-14T07:37:29;100615.52;;;18.81;60.77
77027;BME280;65956;52.986;17.490;2023-06-14T07:39:54;100615.30;;;18.85;60.04
77027;BME280;65956;52.986;17.490;2023-06-14T07:42:20;100613.36;;;18.80;60.22
77027;BME280;65956;52.986;17.490;2023-06-14T07:44:46;100617.70;;;18.74;60.55
77027;BME280;65956;52.986;17.490;2023-06-14T07:47:12;100619.93;;;18.77;61.04
77027;BME280;65956;52.986;17.490;2023-06-14T07:49:38;100627.35;;;18.83;59.82
77027;BME280;65956;52.986;17.490;2023-06-14T07:52:05;100624.64;;;18.66;59.69
77027;BME280;65956;52.986;17.490;2023-06-14T07:54:31;100623.31;;;18.62;60.32
77027;BME280;65956;52.986;17.490;2023-06-14T07:56:58;100622.14;;;18.66;60.57
77027;BME280;65956;52.986;17.490;2023-06-14T07:59:26;100624.19;;;18.78;60.62
77027;BME280;65956;52.986;17.490;2023-06-14T08:01:52;100625.31;;;18.85;60.53
77027;BME280;65956;52.986;17.490;2023-06-14T08:04:18;100623.89;;;18.82;59.67
77027;BME280;65956;52.986;17.490;2023-06-14T08:06:44;100624.66;;;18.72;60.19
77027;BME280;65956;52.986;17.490;2023-06-14T08:09:12;100630.33;;;18.78;60.33
77027;BME280;65956;52.986;17.490;2023-06-14T08:11:38;100628.85;;;18.87;60.14
77027;BME280;65956;52.986;17.490;2023-06-14T08:14:04;100621.84;;;18.92;59.44
77027;BME280;65956;52.986;17.490;2023-06-14T08:16:30;100616.02;;;18.72;59.38
77027;BME280;65956;52.986;17.490;2023-06-14T08:18:56;100613.51;;;18.61;60.40
77027;BME280;65956;52.986;17.490;2023-06-14T08:21:22;100611.17;;;18.58;61.11
77027;BME280;65956;52.986;17.490;2023-06-14T08:23:49;100616.56;;;18.61;60.14
77027;BME280;65956;52.986;17.490;2023-06-14T08:26:18;100612.77;;;18.60;60.24
77027;BME280;65956;52.986;17.490;2023-06-14T08:28:44;100608.38;;;18.63;59.67
77027;BME280;65956;52.986;17.490;2023-06-14T08:31:11;100603.83;;;18.68;59.25
77027;BME280;65956;52.986;17.490;2023-06-14T08:33:37;100601.39;;;18.82;59.19
77027;BME280;65956;52.986;17.490;2023-06-14T08:36:03;100597.02;;;18.96;58.81
77027;BME280;65956;52.986;17.490;2023-06-14T08:38:29;100591.98;;;19.06;58.68
77027;BME280;65956;52.986;17.490;2023-06-14T08:40:57;100579.35;;;19.15;57.59
77027;BME280;65956;52.986;17.490;2023-06-14T08:43:24;100573.14;;;19.25;57.62
77027;BME280;65956;52.986;17.490;2023-06-14T08:45:54;100582.86;;;19.34;56.99
77027;BME280;65956;52.986;17.490;2023-06-14T08:48:28;100585.61;;;19.48;57.59
77027;BME280;65956;52.986;17.490;2023-06-14T08:50:56;100587.20;;;19.65;56.69
77027;BME280;65956;52.986;17.490;2023-06-14T08:53:29;100588.00;;;19.76;56.42
77027;BME280;65956;52.986;17.490;2023-06-14T08:56:01;100581.61;;;19.81;55.66
77027;BME280;65956;52.986;17.490;2023-06-14T08:58:28;100581.85;;;19.85;56.21
77027;BME280;65956;52.986;17.490;2023-06-14T09:01:01;100581.86;;;19.85;55.65
77027;BME280;65956;52.986;17.490;2023-06-14T09:03:28;100583.67;;;19.94;56.01
77027;BME280;65956;52.986;17.490;2023-06-14T09:05:57;100583.92;;;19.93;55.05
77027;BME280;65956;52.986;17.490;2023-06-14T09:08:26;100588.50;;;19.89;54.62
77027;BME280;65956;52.986;17.490;2023-06-14T09:10:52;100588.88;;;19.77;54.91
77027;BME280;65956;52.986;17.490;2023-06-14T09:13:18;100591.27;;;19.79;55.46
77027;BME280;65956;52.986;17.490;2023-06-14T09:15:44;100593.51;;;19.80;55.18
77027;BME280;65956;52.986;17.490;2023-06-14T09:18:10;100599.05;;;19.76;55.25
77027;BME280;65956;52.986;17.490;2023-06-14T09:20:36;100600.79;;;19.79;54.79
77027;BME280;65956;52.986;17.490;2023-06-14T09:23:04;100602.95;;;19.75;54.67
77027;BME280;65956;52.986;17.490;2023-06-14T09:25:31;100606.05;;;19.83;54.93
77027;BME280;65956;52.986;17.490;2023-06-14T09:27:56;100607.48;;;19.91;55.09
77027;BME280;65956;52.986;17.490;2023-06-14T09:30:22;100606.04;;;20.00;55.33
77027;BME280;65956;52.986;17.490;2023-06-14T09:32:49;100605.44;;;20.16;54.88
77027;BME280;65956;52.986;17.490;2023-06-14T09:35:17;100599.99;;;20.21;53.44
77027;BME280;65956;52.986;17.490;2023-06-14T09:37:44;100605.45;;;20.30;54.06
77027;BME280;65956;52.986;17.490;2023-06-14T09:40:10;100607.23;;;20.52;53.59
77027;BME280;65956;52.986;17.490;2023-06-14T09:42:37;100615.77;;;20.75;53.64
77027;BME280;65956;52.986;17.490;2023-06-14T09:45:04;100619.02;;;21.07;53.30
77027;BME280;65956;52.986;17.490;2023-06-14T09:47:30;100616.87;;;21.33;52.07
77027;BME280;65956;52.986;17.490;2023-06-14T09:49:56;100615.70;;;21.48;51.61
77027;BME280;65956;52.986;17.490;2023-06-14T09:52:22;100611.91;;;21.61;51.22
77027;BME280;65956;52.986;17.490;2023-06-14T09:54:49;100610.84;;;21.80;51.02
77027;BME280;65956;52.986;17.490;2023-06-14T09:57:23;100615.10;;;21.98;50.96
77027;BME280;65956;52.986;17.490;2023-06-14T09:59:57;100611.46;;;22.30;50.29
77027;BME280;65956;52.986;17.490;2023-06-14T10:02:29;100609.05;;;22.26;49.18
77027;BME280;65956;52.986;17.490;2023-06-14T10:07:30;100608.21;;;22.08;49.01
77027;BME280;65956;52.986;17.490;2023-06-14T10:09:58;100606.17;;;21.89;49.04
77027;BME280;65956;52.986;17.490;2023-06-14T10:12:24;100602.95;;;21.77;49.81
77027;BME280;65956;52.986;17.490;2023-06-14T10:14:51;100598.88;;;21.88;50.19
77027;BME280;65956;52.986;17.490;2023-06-14T10:17:35;100594.73;;;21.99;49.21
77027;BME280;65956;52.986;17.490;2023-06-14T10:20:33;100596.61;;;21.92;49.22
77027;BME280;65956;52.986;17.490;2023-06-14T10:23:09;100595.79;;;21.92;48.42
77027;BME280;65956;52.986;17.490;2023-06-14T10:25:37;100596.61;;;21.84;48.85
77027;BME280;65956;52.986;17.490;2023-06-14T10:28:14;100599.36;;;21.85;48.10
77027;BME280;65956;52.986;17.490;2023-06-14T10:31:11;100599.01;;;21.76;48.09
77027;BME280;65956;52.986;17.490;2023-06-14T10:33:56;100593.97;;;21.73;48.58
77027;BME280;65956;52.986;17.490;2023-06-14T10:41:32;100589.73;;;22.26;48.36
77027;BME280;65956;52.986;17.490;2023-06-14T10:46:54;100589.77;;;23.04;47.01
77027;BME280;65956;52.986;17.490;2023-06-14T10:49:37;100587.67;;;23.27;46.85
77027;BME280;65956;52.986;17.490;2023-06-14T10:52:09;100581.54;;;23.42;46.18
77027;BME280;65956;52.986;17.490;2023-06-14T10:54:37;100585.45;;;23.29;45.26
77027;BME280;65956;52.986;17.490;2023-06-14T10:57:06;100583.66;;;22.97;46.54
77027;BME280;65956;52.986;17.490;2023-06-14T10:59:33;100578.69;;;22.66;47.96
77027;BME280;65956;52.986;17.490;2023-06-14T11:02:34;100579.41;;;22.36;49.30
77027;BME280;65956;52.986;17.490;2023-06-14T11:05:08;100577.94;;;22.06;50.39
77027;BME280;65956;52.986;17.490;2023-06-14T11:10:39;100578.02;;;21.59;50.32
77027;BME280;65956;52.986;17.490;2023-06-14T11:13:07;100577.55;;;21.51;50.79
77027;BME280;65956;52.986;17.490;2023-06-14T11:15:34;100572.71;;;21.29;53.36
77027;BME280;65956;52.986;17.490;2023-06-14T11:18:05;100570.94;;;21.14;53.38
77027;BME280;65956;52.986;17.490;2023-06-14T11:20:33;100563.73;;;21.14;52.07
77027;BME280;65956;52.986;17.490;2023-06-14T11:23:00;100561.36;;;21.23;51.26
77027;BME280;65956;52.986;17.490;2023-06-14T11:25:26;100560.33;;;21.39;51.65
77027;BME280;65956;52.986;17.490;2023-06-14T11:27:57;100555.85;;;21.51;50.38
77027;BME280;65956;52.986;17.490;2023-06-14T11:30:23;100553.39;;;21.76;48.50
77027;BME280;65956;52.986;17.490;2023-06-14T11:32:52;100555.09;;;22.32;48.11
77027;BME280;65956;52.986;17.490;2023-06-14T11:35:21;100552.11;;;23.06;46.01
77027;BME280;65956;52.986;17.490;2023-06-14T11:37:52;100557.20;;;23.79;44.78
77027;BME280;65956;52.986;17.490;2023-06-14T11:40:19;100551.55;;;24.19;44.22
77027;BME280;65956;52.986;17.490;2023-06-14T11:42:45;100551.06;;;24.33;40.63
77027;BME280;65956;52.986;17.490;2023-06-14T11:45:11;100551.27;;;24.25;40.75
77027;BME280;65956;52.986;17.490;2023-06-14T11:47:39;100555.48;;;24.51;41.77
77027;BME280;65956;52.986;17.490;2023-06-14T11:50:07;100552.89;;;24.90;41.63
77027;BME280;65956;52.986;17.490;2023-06-14T11:52:37;100546.96;;;25.21;41.37
77027;BME280;65956;52.986;17.490;2023-06-14T11:55:04;100537.58;;;25.18;39.92
77027;BME280;65956;52.986;17.490;2023-06-14T11:57:34;100532.34;;;24.66;39.79
77027;BME280;65956;52.986;17.490;2023-06-14T12:00:03;100538.54;;;24.26;41.47
77027;BME280;65956;52.986;17.490;2023-06-14T12:02:41;100545.55;;;24.14;42.40
77027;BME280;65956;52.986;17.490;2023-06-14T12:05:08;100542.58;;;24.09;42.76
77027;BME280;65956;52.986;17.490;2023-06-14T12:07:37;100534.67;;;24.01;42.14
77027;BME280;65956;52.986;17.490;2023-06-14T12:10:09;100534.02;;;23.92;42.07
77027;BME280;65956;52.986;17.490;2023-06-14T12:12:37;100533.33;;;23.83;42.54
77027;BME280;65956;52.986;17.490;2023-06-14T12:15:05;100536.82;;;23.71;42.39
77027;BME280;65956;52.986;17.490;2023-06-14T12:17:35;100535.88;;;23.58;42.74
77027;BME280;65956;52.986;17.490;2023-06-14T12:20:06;100534.19;;;23.44;43.27
77027;BME280;65956;52.986;17.490;2023-06-14T12:22:53;100529.99;;;23.30;43.43
77027;BME280;65956;52.986;17.490;2023-06-14T12:25:33;100522.42;;;23.10;43.96
77027;BME280;65956;52.986;17.490;2023-06-14T12:28:05;100530.64;;;22.91;44.44
77027;BME280;65956;52.986;17.490;2023-06-14T12:30:32;100524.85;;;22.78;44.64
77027;BME280;65956;52.986;17.490;2023-06-14T12:32:58;100521.70;;;22.63;44.89
77027;BME280;65956;52.986;17.490;2023-06-14T12:35:24;100521.88;;;22.50;45.27
77027;BME280;65956;52.986;17.490;2023-06-14T12:37:50;100522.67;;;22.43;45.55
77027;BME280;65956;52.986;17.490;2023-06-14T12:40:17;100522.80;;;22.33;45.80
77027;BME280;65956;52.986;17.490;2023-06-14T12:42:44;100520.98;;;22.22;45.75
77027;BME280;65956;52.986;17.490;2023-06-14T12:45:11;100520.45;;;22.08;45.92
77027;BME280;65956;52.986;17.490;2023-06-14T12:47:37;100517.03;;;21.97;45.97
77027;BME280;65956;52.986;17.490;2023-06-14T12:50:03;100519.44;;;21.91;46.23
77027;BME280;65956;52.986;17.490;2023-06-14T12:52:29;100517.88;;;21.85;46.45
77027;BME280;65956;52.986;17.490;2023-06-14T12:54:56;100518.66;;;21.80;46.20
77027;BME280;65956;52.986;17.490;2023-06-14T12:57:23;100518.24;;;21.71;47.03
77027;BME280;65956;52.986;17.490;2023-06-14T12:59:49;100519.45;;;21.58;47.14
77027;BME280;65956;52.986;17.490;2023-06-14T13:02:16;100522.84;;;21.49;47.33
77027;BME280;65956;52.986;17.490;2023-06-14T13:04:43;100517.27;;;21.38;47.10
77027;BME280;65956;52.986;17.490;2023-06-14T13:07:09;100513.61;;;21.35;47.50
77027;BME280;65956;52.986;17.490;2023-06-14T13:09:37;100511.55;;;21.26;47.94
77027;BME280;65956;52.986;17.490;2023-06-14T13:12:03;100512.02;;;21.20;48.02
77027;BME280;65956;52.986;17.490;2023-06-14T13:14:29;100505.14;;;21.16;47.99
77027;BME280;65956;52.986;17.490;2023-06-14T13:16:55;100505.79;;;21.19;48.23
77027;BME280;65956;52.986;17.490;2023-06-14T13:19:22;100497.27;;;21.24;48.25
77027;BME280;65956;52.986;17.490;2023-06-14T13:21:48;100493.02;;;21.32;47.95
77027;BME280;65956;52.986;17.490;2023-06-14T13:24:15;100494.88;;;21.43;47.64
77027;BME280;65956;52.986;17.490;2023-06-14T13:26:41;100499.31;;;21.47;47.53
77027;BME280;65956;52.986;17.490;2023-06-14T13:29:07;100497.67;;;21.50;47.92
77027;BME280;65956;52.986;17.490;2023-06-14T13:31:33;100499.24;;;21.47;47.90
77027;BME280;65956;52.986;17.490;2023-06-14T13:33:59;100500.33;;;21.45;48.38
77027;BME280;65956;52.986;17.490;2023-06-14T13:36:25;100503.77;;;21.36;48.10
77027;BME280;65956;52.986;17.490;2023-06-14T13:38:51;100505.91;;;21.25;48.63
77027;BME280;65956;52.986;17.490;2023-06-14T13:41:18;100508.23;;;21.12;48.76
77027;BME280;65956;52.986;17.490;2023-06-14T13:43:44;100514.59;;;20.99;49.28
77027;BME280;65956;52.986;17.490;2023-06-14T13:46:10;100518.36;;;20.85;49.22
77027;BME280;65956;52.986;17.490;2023-06-14T13:48:36;100535.91;;;20.58;49.04
77027;BME280;65956;52.986;17.490;2023-06-14T13:51:02;100536.47;;;20.25;49.14
77027;BME280;65956;52.986;17.490;2023-06-14T13:53:30;100533.12;;;19.76;49.96
77027;BME280;65956;52.986;17.490;2023-06-14T13:55:56;100533.85;;;19.30;51.52
77027;BME280;65956;52.986;17.490;2023-06-14T13:58:22;100535.03;;;18.85;52.90
77027;BME280;65956;52.986;17.490;2023-06-14T14:00:49;100537.54;;;18.50;54.19